Time;durP1;ratioP1;P1;durP2;ratioP2;P2;SDS_P1;SDS_P2;PMS_P1;PMS_P2;Temp;Humidity;BMP_temperature;BMP_pressure;BME280_temperature;BME280_humidity;BME280_pressure;Samples;Min_cycle;Max_cycle;Signal;HPM_P1;HPM_P2
2021/03/10 00:00:35;;;;;;;;;;;-2.60;99.90;;;;;;5075387;28;19932;-72
2021/03/10 00:03:01;;;;;;;;;;;-2.60;99.90;;;;;;5075583;28;19925;-72
2021/03/10 00:05:27;;;;;;;;;;;-2.60;99.90;;;;;;5075185;28;20399;-71
2021/03/10 00:07:53;;;;;;;;;;;-2.60;99.90;;;;;;5075246;28;20003;-71
2021/03/10 00:10:19;;;;;;;;;;;-2.60;99.90;;;;;;5075256;28;19978;-72
2021/03/10 00:12:45;;;;;;;;;;;-2.70;99.90;;;;;;5075440;28;19924;-72
2021/03/10 00:15:13;;;;;;;;;;;-2.70;99.90;;;;;;5075313;28;19924;-72
2021/03/10 00:17:41;;;;;;;;;;;-2.70;99.90;;;;;;5074649;28;19974;-72
2021/03/10 00:20:08;;;;;;;;;;;-2.70;99.90;;;;;;5075603;28;20018;-72
2021/03/10 00:22:34;;;;;;;;;;;-2.80;99.90;;;;;;5075479;28;19924;-72
2021/03/10 00:25:00;;;;;;;;;;;-2.80;99.90;;;;;;5074993;28;19985;-72
2021/03/10 00:27:26;;;;;;;;;;;-2.80;99.90;;;;;;5074324;28;19935;-72
2021/03/10 00:29:52;;;;;;;;;;;-2.80;99.90;;;;;;5075369;28;19932;-72
2021/03/10 00:32:19;;;;;;;;;;;-2.90;99.90;;;;;;5074790;28;19970;-72
2021/03/10 00:34:46;;;;;;;;;;;-2.90;99.90;;;;;;5075201;28;20372;-72
2021/03/10 00:37:12;;;;;;;;;;;-2.90;99.90;;;;;;5074830;28;19935;-72
2021/03/10 00:39:38;;;;;;;;;;;-2.90;99.90;;;;;;5074747;28;19929;-72
2021/03/10 00:42:04;;;;;;;;;;;-2.90;99.90;;;;;;5074429;28;19929;-72
2021/03/10 00:44:30;;;;;;;;;;;-2.90;99.90;;;;;;5074441;28;19928;-72
2021/03/10 00:46:56;;;;;;;;;;;-2.90;99.90;;;;;;5074502;28;20338;-72
2021/03/10 00:49:23;;;;;;;;;;;-2.90;99.90;;;;;;5075085;28;19925;-72
2021/03/10 00:51:49;;;;;;;;;;;-3.00;99.90;;;;;;5074978;28;19925;-72
2021/03/10 00:54:15;;;;;;;;;;;-3.00;99.90;;;;;;5074760;28;19924;-72
2021/03/10 00:56:41;;;;;;;;;;;-3.00;99.90;;;;;;5074427;28;19951;-72
2021/03/10 00:59:07;;;;;;;;;;;-3.00;99.90;;;;;;5074713;28;20360;-72
2021/03/10 01:01:33;;;;;;;;;;;-3.10;99.90;;;;;;5074480;28;19929;-72
2021/03/10 01:03:59;;;;;;;;;;;-3.10;99.90;;;;;;5074833;28;20419;-72
2021/03/10 01:06:26;;;;;;;;;;;-3.20;99.90;;;;;;5074108;28;19978;-72
2021/03/10 01:08:52;;;;;;;;;;;-3.20;99.90;;;;;;5074414;28;19925;-72
2021/03/10 01:11:18;;;;;;;;;;;-3.20;99.90;;;;;;5074171;28;19925;-72
2021/03/10 01:13:44;;;;;;;;;;;-3.20;99.90;;;;;;5074388;28;19924;-72
2021/03/10 01:16:10;;;;;;;;;;;-3.20;99.90;;;;;;5073976;28;20022;-72
2021/03/10 01:18:36;;;;;;;;;;;-3.20;99.90;;;;;;5074325;28;19925;-72
2021/03/10 01:21:02;;;;;;;;;;;-3.20;99.90;;;;;;5073982;28;20257;-71
2021/03/10 01:23:29;;;;;;;;;;;-3.30;99.90;;;;;;5073971;28;20384;-72
2021/03/10 01:25:55;;;;;;;;;;;-3.30;99.90;;;;;;5073964;28;19925;-71
2021/03/10 01:28:21;;;;;;;;;;;-3.40;99.90;;;;;;5073697;28;19932;-72
2021/03/10 01:30:47;;;;;;;;;;;-3.40;99.90;;;;;;5073933;28;19966;-71
2021/03/10 01:33:13;;;;;;;;;;;-3.40;99.90;;;;;;5074222;28;19974;-72
2021/03/10 01:35:39;;;;;;;;;;;-3.40;99.90;;;;;;5073743;28;19925;-72
2021/03/10 01:38:05;;;;;;;;;;;-3.40;99.90;;;;;;5073567;28;19932;-72
2021/03/10 01:40:32;;;;;;;;;;;-3.30;99.90;;;;;;5073751;28;19951;-71
2021/03/10 01:43:00;;;;;;;;;;;-3.40;99.90;;;;;;5073666;28;19939;-72
2021/03/10 01:45:26;;;;;;;;;;;-3.30;99.90;;;;;;5073383;28;19931;-72
2021/03/10 01:47:53;;;;;;;;;;;-3.30;99.90;;;;;;5073481;28;19955;-72
2021/03/10 01:50:20;;;;;;;;;;;-3.30;99.90;;;;;;5072856;28;21293;-71
2021/03/10 01:52:47;;;;;;;;;;;-3.30;99.90;;;;;;5073637;28;19931;-72
2021/03/10 01:55:13;;;;;;;;;;;-3.40;99.90;;;;;;5072412;28;19928;-72
2021/03/10 01:57:40;;;;;;;;;;;-3.40;99.90;;;;;;5073255;28;19936;-72
2021/03/10 02:00:07;;;;;;;;;;;-3.40;99.90;;;;;;5073859;28;19936;-72
2021/03/10 02:02:33;;;;;;;;;;;-3.40;99.90;;;;;;5073694;28;19928;-72
2021/03/10 02:04:59;;;;;;;;;;;-3.50;99.90;;;;;;5073405;28;19932;-72
2021/03/10 02:07:28;;;;;;;;;;;-3.50;99.90;;;;;;5072896;28;19932;-72
2021/03/10 02:10:00;;;;;;;;;;;-3.50;99.90;;;;;;5073285;28;19924;-72
2021/03/10 02:12:30;;;;;;;;;;;-3.60;99.90;;;;;;5073519;28;19931;-72
2021/03/10 02:15:00;;;;;;;;;;;-3.60;99.90;;;;;;5073560;28;19939;-72
2021/03/10 02:17:29;;;;;;;;;;;-3.60;99.90;;;;;;5073076;28;19931;-72
2021/03/10 02:20:22;;;;;;;;;;;-3.60;99.90;;;;;;5072752;28;19975;-72
2021/03/10 02:23:21;;;;;;;;;;;-3.60;99.90;;;;;;5048312;28;19925;-72
2021/03/10 02:25:52;;;;;;;;;;;-3.70;99.90;;;;;;5072722;28;19924;-72
2021/03/10 02:28:20;;;;;;;;;;;-3.70;99.90;;;;;;5073029;28;19931;-72
2021/03/10 02:30:48;;;;;;;;;;;-3.70;99.90;;;;;;5072488;28;19931;-72
2021/03/10 02:33:16;;;;;;;;;;;-3.80;99.90;;;;;;5072633;28;19971;-72
2021/03/10 02:35:44;;;;;;;;;;;-3.80;99.90;;;;;;5072557;28;19924;-72
2021/03/10 02:38:13;;;;;;;;;;;-3.90;99.90;;;;;;5072619;28;19924;-72
2021/03/10 02:40:40;;;;;;;;;;;-3.90;99.90;;;;;;5073039;28;19925;-72
2021/03/10 02:43:06;;;;;;;;;;;-4.00;99.90;;;;;;5072937;28;19925;-73
2021/03/10 02:45:34;;;;;;;;;;;-4.00;99.90;;;;;;5072568;28;19978;-72
2021/03/10 02:48:00;;;;;;;;;;;-4.00;99.90;;;;;;5072206;28;19924;-72
2021/03/10 02:50:30;;;;;;;;;;;-4.00;99.90;;;;;;5072590;28;19970;-72
2021/03/10 02:52:57;;;;;;;;;;;-4.00;99.90;;;;;;5071554;28;19929;-72
2021/03/10 02:55:23;;;;;;;;;;;-4.00;99.90;;;;;;5072430;28;19928;-72
2021/03/10 02:57:50;;;;;;;;;;;-4.00;99.90;;;;;;5072458;28;19925;-72
2021/03/10 03:00:18;;;;;;;;;;;-4.00;99.90;;;;;;5072721;28;19924;-72
2021/03/10 03:02:45;;;;;;;;;;;-4.00;99.90;;;;;;5072814;28;19947;-72
2021/03/10 03:05:12;;;;;;;;;;;-4.00;99.90;;;;;;5072379;28;20380;-72
2021/03/10 03:07:38;;;;;;;;;;;-4.00;99.90;;;;;;5076126;28;19947;-72
2021/03/10 03:10:05;;;;;;;;;;;-4.00;99.90;;;;;;5076661;28;19929;-72
2021/03/10 03:12:32;;;;;;;;;;;-4.10;99.90;;;;;;5076652;28;20338;-72
2021/03/10 03:14:58;;;;;;;;;;;-4.00;99.90;;;;;;5075746;28;19932;-72
2021/03/10 03:17:25;;;;;;;;;;;-4.00;99.90;;;;;;5076157;28;20379;-72
2021/03/10 03:19:51;;;;;;;;;;;-4.00;99.90;;;;;;5076711;28;19932;-72
2021/03/10 03:22:18;;;;;;;;;;;-4.00;99.90;;;;;;5076477;28;20364;-72
2021/03/10 03:24:45;;;;;;;;;;;-4.10;99.90;;;;;;5076301;28;19924;-72
2021/03/10 03:27:11;;;;;;;;;;;-4.10;99.90;;;;;;5076038;28;19935;-72
2021/03/10 03:29:37;;;;;;;;;;;-4.10;99.90;;;;;;5076258;28;19932;-73
2021/03/10 03:32:04;;;;;;;;;;;-4.10;99.90;;;;;;5076243;28;19931;-72
2021/03/10 03:34:32;;;;;;;;;;;-4.20;99.90;;;;;;5076573;28;19925;-72
2021/03/10 03:36:58;;;;;;;;;;;-4.20;99.90;;;;;;5075742;28;19981;-72
2021/03/10 03:39:25;;;;;;;;;;;-4.20;99.90;;;;;;5076035;28;19958;-72
2021/03/10 03:41:52;;;;;;;;;;;-4.20;99.90;;;;;;5075996;28;19931;-72
2021/03/10 03:44:18;;;;;;;;;;;-4.20;99.90;;;;;;5076328;28;19933;-72
2021/03/10 03:46:44;;;;;;;;;;;-4.30;99.90;;;;;;5075746;28;19925;-72
2021/03/10 03:49:10;;;;;;;;;;;-4.30;99.90;;;;;;5075901;28;19936;-72
2021/03/10 03:51:36;;;;;;;;;;;-4.30;99.90;;;;;;5075819;28;20430;-73
2021/03/10 03:54:04;;;;;;;;;;;-4.30;99.90;;;;;;5075965;28;19928;-73
2021/03/10 03:56:30;;;;;;;;;;;-4.30;99.90;;;;;;5075533;28;19928;-72
2021/03/10 03:58:56;;;;;;;;;;;-4.30;99.90;;;;;;5075580;28;19978;-72
2021/03/10 04:01:23;;;;;;;;;;;-4.30;99.90;;;;;;5075715;28;19924;-72
2021/03/10 04:03:49;;;;;;;;;;;-4.40;99.90;;;;;;5075708;28;20576;-72
2021/03/10 04:06:15;;;;;;;;;;;-4.30;99.90;;;;;;5075457;28;19925;-72
2021/03/10 04:08:42;;;;;;;;;;;-4.40;99.90;;;;;;5075139;28;19937;-72
2021/03/10 04:11:09;;;;;;;;;;;-4.40;99.90;;;;;;5075467;28;19970;-72
2021/03/10 04:13:35;;;;;;;;;;;-4.40;99.90;;;;;;5075863;28;19931;-72
2021/03/10 04:16:01;;;;;;;;;;;-4.40;99.90;;;;;;5075332;28;20280;-72
2021/03/10 04:18:26;;;;;;;;;;;-4.40;99.90;;;;;;5074227;28;19954;-72
2021/03/10 04:20:52;;;;;;;;;;;-4.40;99.90;;;;;;5075390;28;19939;-72
2021/03/10 04:23:18;;;;;;;;;;;-4.40;99.90;;;;;;5075403;28;19924;-72
2021/03/10 04:25:44;;;;;;;;;;;-4.40;99.90;;;;;;5074854;28;19975;-73
2021/03/10 04:28:11;;;;;;;;;;;-4.40;99.90;;;;;;5074995;28;20369;-72
2021/03/10 04:30:37;;;;;;;;;;;-4.50;99.90;;;;;;5075319;28;19978;-72
2021/03/10 04:33:03;;;;;;;;;;;-4.50;99.90;;;;;;5074934;28;19929;-72
2021/03/10 04:35:29;;;;;;;;;;;-4.50;99.90;;;;;;5074938;28;19924;-72
2021/03/10 04:37:55;;;;;;;;;;;-4.50;99.90;;;;;;5074572;28;19924;-72
2021/03/10 04:40:21;;;;;;;;;;;-4.60;99.90;;;;;;5075053;28;19935;-72
2021/03/10 04:42:47;;;;;;;;;;;-4.70;99.90;;;;;;5074830;28;19924;-75
2021/03/10 04:45:15;;;;;;;;;;;-4.70;99.90;;;;;;5074897;28;19928;-72
2021/03/10 04:47:41;;;;;;;;;;;-4.70;99.90;;;;;;5074326;28;19931;-72
2021/03/10 04:50:08;;;;;;;;;;;-4.80;99.90;;;;;;5074961;28;19947;-72
2021/03/10 04:52:34;;;;;;;;;;;-4.80;99.90;;;;;;5074940;28;19928;-72
2021/03/10 04:55:00;;;;;;;;;;;-4.80;99.90;;;;;;5074871;28;20433;-72
2021/03/10 04:57:26;;;;;;;;;;;-4.80;99.90;;;;;;5074672;28;19925;-72
2021/03/10 04:59:52;;;;;;;;;;;-4.80;99.90;;;;;;5074941;28;20399;-72
2021/03/10 05:02:19;;;;;;;;;;;-4.80;99.90;;;;;;5074837;28;20050;-72
2021/03/10 05:04:45;;;;;;;;;;;-4.80;99.90;;;;;;5074815;28;19924;-72
2021/03/10 05:07:11;;;;;;;;;;;-4.90;99.90;;;;;;5074195;28;20375;-72
2021/03/10 05:09:37;;;;;;;;;;;-4.90;99.90;;;;;;5073825;28;19977;-72
2021/03/10 05:12:03;;;;;;;;;;;-5.00;99.90;;;;;;5074602;28;19925;-72
2021/03/10 05:14:29;;;;;;;;;;;-4.90;99.90;;;;;;5074427;28;19925;-72
2021/03/10 05:16:54;;;;;;;;;;;-4.70;99.90;;;;;;5074097;28;19985;-72
2021/03/10 05:19:21;;;;;;;;;;;-4.80;99.90;;;;;;5074183;28;19931;-72
2021/03/10 05:21:47;;;;;;;;;;;-4.80;99.90;;;;;;5074334;28;19925;-73
2021/03/10 05:24:13;;;;;;;;;;;-4.60;99.90;;;;;;5073993;28;19935;-71
2021/03/10 05:26:39;;;;;;;;;;;-4.50;99.90;;;;;;5074065;28;19929;-71
2021/03/10 05:29:06;;;;;;;;;;;-4.40;99.90;;;;;;5073736;28;19924;-72
2021/03/10 05:31:32;;;;;;;;;;;-4.50;99.90;;;;;;5074010;28;19924;-74
2021/03/10 05:33:58;;;;;;;;;;;-4.60;99.90;;;;;;5074025;28;19925;-72
2021/03/10 05:36:25;;;;;;;;;;;-4.70;99.90;;;;;;5073581;28;19928;-72
2021/03/10 05:38:51;;;;;;;;;;;-4.70;99.90;;;;;;5074636;28;19928;-72
2021/03/10 05:41:17;;;;;;;;;;;-4.70;99.90;;;;;;5074093;28;19978;-73
2021/03/10 05:43:43;;;;;;;;;;;-4.70;99.90;;;;;;5073726;28;19935;-74
2021/03/10 05:46:09;;;;;;;;;;;-4.80;99.90;;;;;;5073490;28;19932;-72
2021/03/10 05:48:35;;;;;;;;;;;-4.80;99.90;;;;;;5073391;28;19924;-73
2021/03/10 05:51:02;;;;;;;;;;;-4.80;99.90;;;;;;5073528;28;20426;-73
2021/03/10 05:53:29;;;;;;;;;;;-4.70;99.90;;;;;;5073934;28;19925;-72
2021/03/10 05:55:59;;;;;;;;;;;-4.70;99.90;;;;;;5073300;28;19931;-71
2021/03/10 05:58:25;;;;;;;;;;;-4.60;99.90;;;;;;5073321;28;19928;-72
2021/03/10 06:00:51;;;;;;;;;;;-4.40;99.90;;;;;;5073359;28;20307;-72
2021/03/10 06:03:17;;;;;;;;;;;-4.20;99.90;;;;;;5073620;28;19955;-71
2021/03/10 06:05:43;;;;;;;;;;;-4.10;99.90;;;;;;5072812;28;19993;-72
2021/03/10 06:08:14;;;;;;;;;;;-3.90;99.90;;;;;;5073354;28;20335;-73
2021/03/10 06:10:42;;;;;;;;;;;-3.70;99.90;;;;;;5073516;28;19924;-72
2021/03/10 06:13:18;;;;;;;;;;;-3.50;99.90;;;;;;5073428;28;19924;-72
2021/03/10 06:15:44;;;;;;;;;;;-3.30;99.90;;;;;;5073179;28;19975;-72
2021/03/10 06:18:20;;;;;;;;;;;-2.90;99.90;;;;;;5073140;28;19931;-72
2021/03/10 06:20:46;;;;;;;;;;;-2.40;99.90;;;;;;5073360;28;19925;-72
2021/03/10 06:23:14;;;;;;;;;;;-1.50;99.90;;;;;;5073400;28;20376;-72
2021/03/10 06:25:40;;;;;;;;;;;-0.70;99.90;;;;;;5072831;28;19931;-72
2021/03/10 06:28:07;;;;;;;;;;;0.20;99.90;;;;;;5072916;28;19925;-72
2021/03/10 06:30:34;;;;;;;;;;;1.30;99.90;;;;;;5072758;28;19924;-73
2021/03/10 06:33:00;;;;;;;;;;;2.40;99.90;;;;;;5072857;28;20360;-72
2021/03/10 06:35:26;;;;;;;;;;;3.50;96.10;;;;;;5072938;28;19931;-72
2021/03/10 06:37:52;;;;;;;;;;;4.30;92.00;;;;;;5072293;28;19993;-72
2021/03/10 06:40:19;;;;;;;;;;;5.10;88.00;;;;;;5072406;28;19929;-72
2021/03/10 06:42:54;;;;;;;;;;;5.70;82.80;;;;;;5072727;28;19925;-73
2021/03/10 06:45:28;;;;;;;;;;;6.40;76.60;;;;;;5072876;28;19929;-72
2021/03/10 06:47:54;;;;;;;;;;;7.20;70.20;;;;;;5072587;28;19924;-72
2021/03/10 06:50:20;;;;;;;;;;;7.60;68.80;;;;;;5073067;28;19925;-72
2021/03/10 06:52:49;;;;;;;;;;;8.00;66.20;;;;;;5072816;28;19928;-73
2021/03/10 06:55:17;;;;;;;;;;;8.20;63.80;;;;;;5072609;28;19928;-73
2021/03/10 06:57:43;;;;;;;;;;;8.50;61.70;;;;;;5071947;28;19924;-73
2021/03/10 07:00:19;;;;;;;;;;;8.90;60.00;;;;;;5072980;28;20284;-73
2021/03/10 07:02:47;;;;;;;;;;;9.20;58.60;;;;;;5072680;28;19947;-73
2021/03/10 07:05:13;;;;;;;;;;;9.50;56.70;;;;;;5072590;28;19924;-73
2021/03/10 07:07:39;;;;;;;;;;;9.80;56.80;;;;;;5072084;28;19928;-73
2021/03/10 07:10:06;;;;;;;;;;;10.10;55.80;;;;;;5072656;28;19970;-73
2021/03/10 07:12:32;;;;;;;;;;;10.70;55.10;;;;;;5072442;28;20360;-73
2021/03/10 07:15:00;;;;;;;;;;;10.80;53.30;;;;;;5072558;28;19925;-73
2021/03/10 07:17:27;;;;;;;;;;;11.00;52.70;;;;;;5072176;28;19948;-73
2021/03/10 07:19:53;;;;;;;;;;;11.20;52.00;;;;;;5072628;28;20372;-73
2021/03/10 07:22:21;;;;;;;;;;;11.40;51.70;;;;;;5072583;28;19928;-73
2021/03/10 07:24:48;;;;;;;;;;;11.70;50.80;;;;;;5072422;28;19924;-73
2021/03/10 07:27:15;;;;;;;;;;;12.00;50.00;;;;;;5072363;28;19924;-73
2021/03/10 07:29:42;;;;;;;;;;;12.30;49.20;;;;;;5072201;28;19939;-73
2021/03/10 07:32:09;;;;;;;;;;;12.60;48.20;;;;;;5072653;28;19970;-73
2021/03/10 07:34:37;;;;;;;;;;;13.10;46.20;;;;;;5072218;28;19978;-73
2021/03/10 07:37:11;;;;;;;;;;;13.40;46.20;;;;;;5071967;28;19931;-73
2021/03/10 07:39:37;;;;;;;;;;;14.00;43.40;;;;;;5071866;28;19932;-73
2021/03/10 07:42:07;;;;;;;;;;;14.20;43.10;;;;;;5072413;28;20395;-73
2021/03/10 07:44:34;;;;;;;;;;;14.00;42.50;;;;;;5076179;28;19934;-73
2021/03/10 07:47:04;;;;;;;;;;;14.00;42.50;;;;;;5073213;28;19924;-73
2021/03/10 07:49:30;;;;;;;;;;;14.30;42.20;;;;;;5071783;28;19929;-73
2021/03/10 07:52:04;;;;;;;;;;;14.60;41.70;;;;;;5071899;28;20389;-72
2021/03/10 07:54:30;;;;;;;;;;;14.80;41.00;;;;;;5075604;28;19963;-72
2021/03/10 07:57:06;;;;;;;;;;;15.10;40.00;;;;;;5075531;28;19925;-73
2021/03/10 07:59:32;;;;;;;;;;;15.20;40.50;;;;;;5075733;28;19924;-73
2021/03/10 08:02:01;;;;;;;;;;;15.60;40.60;;;;;;5075626;28;19978;-73
2021/03/10 08:04:27;;;;;;;;;;;16.00;39.30;;;;;;5075466;28;19924;-73
2021/03/10 08:06:53;;;;;;;;;;;16.40;38.00;;;;;;5075202;28;19947;-72
2021/03/10 08:09:21;;;;;;;;;;;16.70;38.30;;;;;;5075553;28;19924;-72
2021/03/10 08:11:48;;;;;;;;;;;16.90;38.00;;;;;;5075338;28;19969;-72
2021/03/10 08:14:15;;;;;;;;;;;17.30;37.40;;;;;;5075743;28;20354;-73
2021/03/10 08:16:42;;;;;;;;;;;17.60;36.70;;;;;;5075066;28;20311;-72
2021/03/10 08:19:08;;;;;;;;;;;17.90;35.40;;;;;;5075624;28;20372;-73
2021/03/10 08:21:34;;;;;;;;;;;18.20;34.60;;;;;;5075242;28;19929;-72
2021/03/10 08:24:00;;;;;;;;;;;18.40;34.00;;;;;;5075240;28;19928;-73
2021/03/10 08:26:27;;;;;;;;;;;18.40;34.50;;;;;;5074944;28;19977;-73
2021/03/10 08:28:53;;;;;;;;;;;18.60;34.50;;;;;;5075146;28;19925;-73
2021/03/10 08:31:19;;;;;;;;;;;18.80;33.60;;;;;;5075315;28;19924;-73
2021/03/10 08:33:45;;;;;;;;;;;19.10;33.00;;;;;;5075156;28;19924;-73
2021/03/10 08:36:11;;;;;;;;;;;19.30;32.30;;;;;;5074880;28;19929;-73
2021/03/10 08:38:37;;;;;;;;;;;19.30;33.00;;;;;;5074650;28;20379;-73
2021/03/10 08:41:04;;;;;;;;;;;19.50;33.10;;;;;;5075386;28;19925;-74
2021/03/10 08:43:31;;;;;;;;;;;19.80;32.90;;;;;;5075186;28;19928;-73
2021/03/10 08:45:57;;;;;;;;;;;20.10;31.60;;;;;;5074522;28;19924;-73
2021/03/10 08:48:24;;;;;;;;;;;20.30;30.50;;;;;;5074517;28;20325;-74
2021/03/10 08:50:50;;;;;;;;;;;20.00;30.20;;;;;;5075164;28;19925;-74
2021/03/10 08:53:17;;;;;;;;;;;19.80;30.80;;;;;;5074780;28;19970;-73
2021/03/10 08:55:43;;;;;;;;;;;20.00;30.40;;;;;;5074429;28;19933;-73
2021/03/10 08:58:10;;;;;;;;;;;20.30;30.00;;;;;;5074053;28;20334;-73
2021/03/10 09:00:37;;;;;;;;;;;20.40;29.90;;;;;;5074582;28;20288;-73
2021/03/10 09:03:10;;;;;;;;;;;20.70;29.70;;;;;;5074290;28;19931;-74
2021/03/10 09:05:36;;;;;;;;;;;20.80;29.60;;;;;;5074441;28;19925;-73
2021/03/10 09:08:04;;;;;;;;;;;21.10;29.30;;;;;;5073975;28;19928;-74
2021/03/10 09:10:30;;;;;;;;;;;21.00;28.80;;;;;;5074467;28;19924;-73
2021/03/10 09:12:56;;;;;;;;;;;20.90;28.80;;;;;;5074326;28;19947;-73
2021/03/10 09:15:24;;;;;;;;;;;20.90;28.80;;;;;;5074085;28;19960;-72
2021/03/10 09:17:51;;;;;;;;;;;21.00;28.90;;;;;;5074099;28;19936;-73
2021/03/10 09:20:24;;;;;;;;;;;21.20;28.20;;;;;;5075986;28;19924;-72
2021/03/10 09:22:50;;;;;;;;;;;21.00;28.20;;;;;;5074185;28;19928;-73
2021/03/10 09:25:18;;;;;;;;;;;20.90;28.20;;;;;;5074246;28;19929;-72
2021/03/10 09:27:44;;;;;;;;;;;21.20;28.50;;;;;;5073368;28;20437;-72
2021/03/10 09:30:11;;;;;;;;;;;21.70;28.10;;;;;;5074266;28;19925;-72
2021/03/10 09:32:38;;;;;;;;;;;22.10;27.70;;;;;;5074261;28;19925;-72
2021/03/10 09:35:10;;;;;;;;;;;22.50;27.30;;;;;;5074099;28;19935;-73
2021/03/10 09:37:42;;;;;;;;;;;22.60;27.20;;;;;;5073531;28;19970;-72
2021/03/10 09:40:09;;;;;;;;;;;22.90;26.20;;;;;;5073783;28;19925;-72
2021/03/10 09:42:35;;;;;;;;;;;23.00;26.20;;;;;;5073748;28;20379;-73
2021/03/10 09:45:01;;;;;;;;;;;23.10;26.40;;;;;;5073665;28;19931;-72
2021/03/10 09:47:27;;;;;;;;;;;23.00;26.40;;;;;;5073408;28;20287;-72
2021/03/10 09:49:54;;;;;;;;;;;23.00;26.40;;;;;;5073667;28;19931;-71
2021/03/10 09:52:34;;;;;;;;;;;23.00;25.90;;;;;;5073541;28;19924;-72
2021/03/10 09:55:00;;;;;;;;;;;23.10;25.40;;;;;;5073388;28;19928;-73
2021/03/10 09:57:28;;;;;;;;;;;22.80;25.80;;;;;;5073177;28;19925;-73
2021/03/10 09:59:54;;;;;;;;;;;22.90;25.80;;;;;;5073286;28;20316;-73
2021/03/10 10:02:20;;;;;;;;;;;22.80;24.50;;;;;;5073339;28;19924;-72
2021/03/10 10:04:49;;;;;;;;;;;21.20;23.90;;;;;;5073162;28;19932;-72
2021/03/10 10:07:15;;;;;;;;;;;20.80;24.90;;;;;;5072824;28;19932;-73
2021/03/10 10:09:42;;;;;;;;;;;21.10;25.90;;;;;;5072909;28;19945;-72
2021/03/10 10:12:09;;;;;;;;;;;21.60;26.00;;;;;;5073180;28;19924;-73
2021/03/10 10:14:35;;;;;;;;;;;22.10;25.60;;;;;;5072947;28;19928;-72
2021/03/10 10:17:01;;;;;;;;;;;22.00;24.30;;;;;;5072243;28;20410;-72
2021/03/10 10:19:26;;;;;;;;;;;21.70;23.90;;;;;;5073059;28;19925;-73
2021/03/10 10:21:53;;;;;;;;;;;20.80;24.30;;;;;;5072835;28;20318;-72
2021/03/10 10:24:19;;;;;;;;;;;20.70;24.40;;;;;;5073449;28;19925;-73
2021/03/10 10:26:45;;;;;;;;;;;21.20;24.80;;;;;;5072752;28;19989;-73
2021/03/10 10:29:11;;;;;;;;;;;21.30;24.50;;;;;;5073214;28;19932;-73
2021/03/10 10:31:37;;;;;;;;;;;21.60;24.60;;;;;;5073265;28;20016;-73
2021/03/10 10:34:03;;;;;;;;;;;21.70;24.10;;;;;;5072943;28;20330;-74
2021/03/10 10:36:29;;;;;;;;;;;21.40;23.90;;;;;;5072413;28;19924;-73
2021/03/10 10:38:55;;;;;;;;;;;20.60;24.60;;;;;;5072620;28;19978;-73
2021/03/10 10:41:21;;;;;;;;;;;20.60;25.20;;;;;;5072777;28;19928;-73
2021/03/10 10:43:48;;;;;;;;;;;21.00;25.00;;;;;;5073036;28;19932;-73
2021/03/10 10:46:14;;;;;;;;;;;20.70;24.30;;;;;;5072681;28;19929;-72
2021/03/10 10:48:40;;;;;;;;;;;20.80;24.50;;;;;;5072607;28;20409;-73
2021/03/10 10:51:06;;;;;;;;;;;20.00;25.40;;;;;;5072474;28;19925;-74
2021/03/10 10:53:32;;;;;;;;;;;19.10;24.10;;;;;;5072891;28;19925;-73
2021/03/10 10:55:58;;;;;;;;;;;18.70;24.70;;;;;;5072712;28;19928;-73
2021/03/10 10:58:24;;;;;;;;;;;18.60;25.20;;;;;;5072637;28;19958;-72
2021/03/10 11:00:51;;;;;;;;;;;19.10;25.70;;;;;;5072668;28;19969;-73
2021/03/10 11:03:17;;;;;;;;;;;18.30;25.60;;;;;;5072571;28;19931;-72
2021/03/10 11:05:43;;;;;;;;;;;18.00;25.40;;;;;;5072364;28;20376;-73
2021/03/10 11:08:09;;;;;;;;;;;17.70;25.80;;;;;;5072383;28;19924;-73
2021/03/10 11:10:35;;;;;;;;;;;17.80;25.50;;;;;;5072630;28;20338;-73
2021/03/10 11:13:01;;;;;;;;;;;16.60;25.90;;;;;;5072296;28;19925;-73
2021/03/10 11:15:27;;;;;;;;;;;16.30;26.50;;;;;;5072198;28;19925;-73
2021/03/10 11:17:54;;;;;;;;;;;17.10;26.80;;;;;;5071967;28;19925;-73
2021/03/10 11:20:20;;;;;;;;;;;16.30;25.50;;;;;;5072112;28;20402;-73
2021/03/10 11:22:46;;;;;;;;;;;15.40;26.50;;;;;;5072676;28;19925;-73
2021/03/10 11:25:13;;;;;;;;;;;14.70;26.90;;;;;;5072514;28;19924;-73
2021/03/10 11:27:39;;;;;;;;;;;15.00;28.10;;;;;;5074378;28;20376;-74
2021/03/10 11:30:06;;;;;;;;;;;15.40;27.60;;;;;;5076429;28;19928;-74
2021/03/10 11:32:32;;;;;;;;;;;15.70;28.10;;;;;;5076384;28;20030;-74
2021/03/10 11:34:59;;;;;;;;;;;16.20;28.00;;;;;;5076123;28;19938;-73
2021/03/10 11:37:25;;;;;;;;;;;15.90;28.00;;;;;;5075844;28;20368;-74
2021/03/10 11:39:51;;;;;;;;;;;16.40;28.30;;;;;;5076308;28;19932;-73
2021/03/10 11:42:17;;;;;;;;;;;17.00;27.90;;;;;;5076173;28;20549;-74
2021/03/10 11:44:43;;;;;;;;;;;16.40;26.90;;;;;;5076134;28;19928;-74
2021/03/10 11:47:09;;;;;;;;;;;16.30;27.20;;;;;;5075540;28;20372;-73
2021/03/10 11:49:35;;;;;;;;;;;15.40;27.30;;;;;;5075668;28;19929;-73
2021/03/10 11:52:02;;;;;;;;;;;14.60;28.20;;;;;;5075943;28;19948;-73
2021/03/10 11:54:28;;;;;;;;;;;14.10;28.80;;;;;;5075786;28;19931;-74
2021/03/10 11:56:54;;;;;;;;;;;14.30;28.90;;;;;;5075581;28;19978;-73
2021/03/10 11:59:20;;;;;;;;;;;14.90;28.50;;;;;;5075589;28;20303;-73
2021/03/10 12:01:46;;;;;;;;;;;15.00;28.10;;;;;;5075822;28;19924;-74
2021/03/10 12:04:12;;;;;;;;;;;14.50;27.70;;;;;;5075576;28;19925;-74
2021/03/10 12:06:38;;;;;;;;;;;14.20;28.20;;;;;;5075713;28;19947;-73
2021/03/10 12:09:05;;;;;;;;;;;13.90;28.90;;;;;;5076808;28;19931;-73
2021/03/10 12:11:31;;;;;;;;;;;14.50;29.00;;;;;;5075838;28;20331;-73
2021/03/10 12:13:57;;;;;;;;;;;15.10;27.60;;;;;;5075588;28;19924;-74
2021/03/10 12:16:23;;;;;;;;;;;14.90;27.50;;;;;;5075370;28;19982;-74
2021/03/10 12:18:49;;;;;;;;;;;15.00;27.80;;;;;;5075946;28;19932;-73
2021/03/10 12:21:15;;;;;;;;;;;15.10;27.00;;;;;;5075275;28;19934;-73
2021/03/10 12:23:41;;;;;;;;;;;15.00;27.10;;;;;;5076437;28;19982;-74
2021/03/10 12:26:08;;;;;;;;;;;14.80;27.50;;;;;;5074982;28;19931;-73
2021/03/10 12:28:33;;;;;;;;;;;16.10;28.10;;;;;;5075187;28;19931;-74
2021/03/10 12:30:59;;;;;;;;;;;17.40;26.20;;;;;;5075220;28;19924;-74
2021/03/10 12:33:25;;;;;;;;;;;18.30;24.90;;;;;;5075133;28;19925;-73
2021/03/10 12:35:51;;;;;;;;;;;16.50;25.80;;;;;;5075162;28;20364;-73
2021/03/10 12:38:17;;;;;;;;;;;16.70;26.60;;;;;;5073983;28;19924;-74
2021/03/10 12:40:43;;;;;;;;;;;17.30;25.80;;;;;;5074813;28;19966;-74
2021/03/10 12:43:10;;;;;;;;;;;17.90;25.00;;;;;;5075329;28;20330;-74
2021/03/10 12:45:36;;;;;;;;;;;18.20;24.50;;;;;;5074373;28;19932;-73
2021/03/10 12:48:02;;;;;;;;;;;18.00;24.70;;;;;;5074961;28;19924;-73
2021/03/10 12:50:28;;;;;;;;;;;18.60;25.10;;;;;;5074876;28;19924;-73
2021/03/10 12:52:54;;;;;;;;;;;19.20;24.00;;;;;;5074963;28;19951;-73
2021/03/10 12:55:20;;;;;;;;;;;19.20;24.20;;;;;;5074729;28;19924;-72
2021/03/10 12:57:46;;;;;;;;;;;19.00;24.10;;;;;;5074371;28;20371;-72
2021/03/10 13:00:15;;;;;;;;;;;19.30;24.30;;;;;;5074725;28;19924;-73
2021/03/10 13:02:41;;;;;;;;;;;19.50;24.00;;;;;;5074669;28;19925;-73
2021/03/10 13:05:08;;;;;;;;;;;19.40;23.50;;;;;;5074730;28;20016;-73
2021/03/10 13:07:34;;;;;;;;;;;18.40;23.60;;;;;;5073941;28;19928;-73
2021/03/10 13:09:59;;;;;;;;;;;16.70;24.40;;;;;;5074354;28;19935;-72
2021/03/10 13:12:25;;;;;;;;;;;15.90;26.10;;;;;;5074328;28;19928;-72
2021/03/10 13:14:52;;;;;;;;;;;15.30;27.10;;;;;;5074417;28;19947;-72
2021/03/10 13:17:18;;;;;;;;;;;14.70;27.40;;;;;;5073979;28;19955;-73
2021/03/10 13:19:44;;;;;;;;;;;15.00;26.90;;;;;;5074563;28;19951;-73
2021/03/10 13:22:10;;;;;;;;;;;15.40;26.40;;;;;;5074615;28;20387;-73
2021/03/10 13:24:36;;;;;;;;;;;15.60;26.10;;;;;;5074006;28;19925;-73
2021/03/10 13:27:02;;;;;;;;;;;16.60;26.10;;;;;;5073788;28;19931;-72
2021/03/10 13:29:28;;;;;;;;;;;17.20;25.80;;;;;;5073906;28;19924;-73
2021/03/10 13:31:54;;;;;;;;;;;17.40;25.60;;;;;;5074237;28;19931;-73
2021/03/10 13:34:21;;;;;;;;;;;16.80;25.80;;;;;;5074074;28;19924;-72
2021/03/10 13:36:48;;;;;;;;;;;17.00;25.90;;;;;;5073743;28;20284;-72
2021/03/10 13:39:14;;;;;;;;;;;17.50;26.30;;;;;;5073503;28;19983;-73
2021/03/10 13:41:40;;;;;;;;;;;16.90;24.90;;;;;;5073723;28;19993;-72
2021/03/10 13:44:06;;;;;;;;;;;16.40;25.60;;;;;;5073697;28;19924;-72
2021/03/10 13:46:33;;;;;;;;;;;16.20;26.10;;;;;;5073623;28;19925;-73
2021/03/10 13:48:59;;;;;;;;;;;15.80;26.10;;;;;;5073827;28;19924;-72
2021/03/10 13:51:25;;;;;;;;;;;15.30;26.20;;;;;;5072859;28;19974;-72
2021/03/10 13:53:51;;;;;;;;;;;16.00;26.50;;;;;;5073632;28;19947;-72
2021/03/10 13:56:17;;;;;;;;;;;17.30;26.60;;;;;;5073502;28;19925;-72
2021/03/10 13:58:43;;;;;;;;;;;18.50;25.80;;;;;;5073110;28;19932;-72
2021/03/10 14:01:11;;;;;;;;;;;18.60;24.80;;;;;;5074267;28;20338;-73
2021/03/10 14:03:37;;;;;;;;;;;18.30;24.90;;;;;;5073153;28;20288;-74
2021/03/10 14:06:04;;;;;;;;;;;18.40;25.40;;;;;;5073542;28;19939;-76
2021/03/10 14:08:31;;;;;;;;;;;18.50;25.30;;;;;;5072928;28;19924;-75
2021/03/10 14:10:59;;;;;;;;;;;18.90;25.50;;;;;;5072995;28;19983;-73
2021/03/10 14:13:25;;;;;;;;;;;17.60;26.20;;;;;;5072993;28;19929;-73
2021/03/10 14:15:51;;;;;;;;;;;17.60;26.20;;;;;;5073600;28;19925;-76